Covington, VA (24426)

2:34 AM EST on December 03, 2016 (GMT -0500)
Dressler Estates | | Change Station

Elev 1270 ft 37.83 °N, 80.00 °W | Updated 4 minutes ago

Overcast
Overcast
38.2 °F
Feels Like 38 °F
N
1.0
Wind Variable Wind from NW
Gusts 11.0 mph

Today
High -- | Low -- °F
--% Chance of Precip.
Yesterday
High -- | Low -- °F
Precip. -- in
Pressure 30.20 in
Visibility 10.0 miles
Clouds Overcast 2600 ft
Windchill 38 °F
Dew Point 27 °F
Humidity 64%
Rainfall 0.00 in
Snow Depth Not available.
7:18 AM 5:00 PM
Waxing Crescent, 13% visible
METAR KLWB 030655Z AUTO 33010G18KT 10SM OVC026 00/M05 A3020 RMK AO2 T00011053
Pressure 30.20 in
Visibility 10.0 miles
Clouds Overcast 2600 ft
Windchill 38 °F
Dew Point 27 °F
Humidity 64%
Rainfall 0.00 in
Snow Depth Not available.
7:18 AM 5:00 PM
Waxing Crescent, 13% visible
METAR KLWB 030655Z AUTO 33010G18KT 10SM OVC026 00/M05 A3020 RMK AO2 T00011053

10-Day Weather Forecast

Almanac

Astronomy

Dec. 03, 2016 Rise Set
Actual Time
Civil Twilight
Nautical Twilight
Astronomical Twilight
Moon
Length of Visible Light
Length of Day
Tomorrow will be .
, % of the Moon is Illuminated

Today's Extremes

State Highs State Lows

Community

WunderPhotos

Upload Photos

1,955,432 photos uploaded!

WunderBlog® & News

Nearby

Air Quality

  Air Quality AQ Index Pollutant
Not available.

Snow Depth

Station Depth Elevation

Earthquake Activity

City Distance Mag. Time & Date
Minimum magnitude displayed is 2.5.

Coastal Water Temperatures

Place Temperature

Stations

Nearby Weather Stations

Station Location Temp. Windchill Dew Point Humidity Wind Precip. Elev Updated Type
                   

Watches & Warnings

There are currently no watches in effect.